createdAt,value
2017-11-24T00:32:34.877Z,5.68
2017-11-24T00:47:34.816Z,5.62
2017-11-24T01:02:34.744Z,5.56
2017-11-24T01:17:34.372Z,5.47
2017-11-24T01:32:35.121Z,5.31
2017-11-24T02:02:34.952Z,5.18
2017-11-24T02:17:37.362Z,5.11
2017-11-24T02:32:34.344Z,4.98
2017-11-24T02:47:37.233Z,4.84
2017-11-24T03:02:34.215Z,4.78
2017-11-24T03:17:36.623Z,4.70
2017-11-24T03:32:36.556Z,4.58
2017-11-24T03:47:34.465Z,4.54
2017-11-24T04:02:34.353Z,4.46
2017-11-24T04:17:34.816Z,4.41
2017-11-24T04:32:34.783Z,4.40
2017-11-24T04:47:36.185Z,4.36
2017-11-24T05:02:34.625Z,4.22
2017-11-24T05:17:37.999Z,4.10
2017-11-24T05:32:34.909Z,4.06
2017-11-24T05:47:34.866Z,4.20
2017-11-24T06:02:34.893Z,5.03
2017-11-24T06:32:38.113Z,9.39
2017-11-24T06:47:35.066Z,11.30
2017-11-24T07:02:35.959Z,12.95
2017-11-24T07:17:36.681Z,14.21
2017-11-24T07:32:35.094Z,14.79
2017-11-24T07:47:34.538Z,15.68
2017-11-24T08:02:34.462Z,15.48
2017-11-24T08:17:34.789Z,15.11
2017-11-24T08:32:34.781Z,15.89
2017-11-24T08:47:40.039Z,16.54
2017-11-24T09:02:36.581Z,16.69
2017-11-24T09:17:36.995Z,17.31
2017-11-24T09:32:36.909Z,17.14
2017-11-24T09:47:36.862Z,16.86
2017-11-24T10:02:36.784Z,16.66
2017-11-24T10:17:35.210Z,16.20
2017-11-24T10:32:35.095Z,15.97
2017-11-24T10:47:35.032Z,15.90
2017-11-24T11:02:35.517Z,16.43
2017-11-24T11:17:34.420Z,16.36
2017-11-24T11:32:34.347Z,15.68
2017-11-24T11:47:35.769Z,15.87
2017-11-24T12:02:35.188Z,15.42
2017-11-24T12:17:34.626Z,15.30
2017-11-24T12:32:34.030Z,15.20
2017-11-24T12:47:36.487Z,14.98
2017-11-24T13:02:35.025Z,14.83
2017-11-24T13:17:34.242Z,14.60
2017-11-24T13:32:34.752Z,14.11
2017-11-24T13:47:38.633Z,13.68
2017-11-24T14:02:34.594Z,13.26
2017-11-24T14:17:40.013Z,12.85
2017-11-24T14:32:36.921Z,12.48
2017-11-24T14:47:34.888Z,12.10
2017-11-24T15:02:36.209Z,11.78
2017-11-24T15:17:35.191Z,11.44
2017-11-24T15:32:35.593Z,11.19
2017-11-24T15:47:37.981Z,11.01
2017-11-24T16:02:35.005Z,10.79
2017-11-24T16:17:34.347Z,10.57
2017-11-24T16:32:35.273Z,10.37
2017-11-24T16:47:36.250Z,10.12
2017-11-24T17:02:35.150Z,9.75
2017-11-24T17:17:34.536Z,9.51
2017-11-24T17:32:34.441Z,9.26
2017-11-24T17:47:34.372Z,9.00
2017-11-24T18:02:34.337Z,8.78
2017-11-24T18:17:36.760Z,8.64
2017-11-24T18:32:34.425Z,8.68
2017-11-24T18:47:34.422Z,8.60
2017-11-24T19:02:34.359Z,8.44
2017-11-24T19:17:34.910Z,8.28
2017-11-24T19:32:34.943Z,8.08
2017-11-24T19:47:36.903Z,7.86
2017-11-24T20:02:34.871Z,7.62
2017-11-24T20:17:35.153Z,7.49
2017-11-24T22:47:34.678Z,6.45
2017-11-24T23:47:34.422Z,5.82
